createdAt,value
2023-11-24T00:01:09.166Z,89.96
2023-11-24T00:03:42.103Z,89.75
2023-11-24T00:06:13.593Z,89.79
2023-11-24T00:08:42.644Z,89.95
2023-11-24T00:11:11.618Z,89.85
2023-11-24T00:13:40.606Z,89.64
2023-11-24T00:16:12.578Z,89.40
2023-11-24T00:18:41.861Z,89.30
2023-11-24T00:21:12.402Z,89.31
2023-11-24T00:23:42.398Z,89.34
2023-11-24T00:26:12.866Z,89.35
2023-11-24T00:28:55.195Z,89.37
2023-11-24T00:31:27.184Z,89.24
2023-11-24T00:33:57.385Z,89.09
2023-11-24T00:36:26.852Z,88.98
2023-11-24T00:38:57.253Z,88.97
2023-11-24T00:41:28.700Z,88.61
2023-11-24T00:43:58.589Z,88.67
2023-11-24T00:46:27.668Z,88.66
2023-11-24T00:48:57.688Z,88.51
2023-11-24T00:51:27.915Z,88.50
2023-11-24T00:53:57.465Z,88.52
2023-11-24T00:56:26.389Z,88.52
2023-11-24T00:58:55.933Z,88.80
2023-11-24T01:01:25.964Z,88.82
2023-11-24T01:03:55.417Z,88.86
2023-11-24T01:06:26.127Z,88.68
2023-11-24T01:08:55.675Z,88.76
2023-11-24T01:11:25.935Z,88.52
2023-11-24T01:13:55.631Z,88.44
2023-11-24T01:16:25.436Z,88.52
2023-11-24T01:18:55.002Z,88.38
2023-11-24T01:21:27.167Z,88.17
2023-11-24T01:24:02.538Z,88.23
2023-11-24T01:26:34.995Z,88.52
2023-11-24T01:29:04.342Z,88.56
2023-11-24T01:31:33.767Z,88.57
2023-11-24T01:34:03.218Z,88.62
2023-11-24T01:36:32.506Z,88.51
2023-11-24T01:39:08.611Z,88.44
2023-11-24T01:41:40.991Z,88.36
2023-11-24T01:44:12.496Z,88.28
2023-11-24T01:46:41.561Z,87.88
2023-11-24T01:49:14.060Z,87.71
2023-11-24T01:51:46.093Z,87.38
2023-11-24T01:54:17.893Z,87.53
2023-11-24T01:56:48.383Z,87.52
2023-11-24T01:59:19.458Z,87.53
2023-11-24T02:01:49.790Z,87.55
2023-11-24T02:04:22.923Z,87.37
2023-11-24T02:06:55.461Z,87.31
2023-11-24T02:09:26.517Z,87.25
2023-11-24T02:11:55.834Z,87.28
2023-11-24T02:14:27.270Z,86.49
2023-11-24T02:16:56.907Z,86.30
2023-11-24T02:19:26.169Z,86.14
2023-11-24T02:21:55.289Z,86.42
2023-11-24T02:24:24.621Z,86.70
2023-11-24T02:26:53.711Z,86.93
2023-11-24T02:29:23.997Z,87.14
2023-11-24T02:32:14.589Z,87.31
2023-11-24T02:34:43.508Z,87.41
2023-11-24T02:37:12.727Z,87.50
2023-11-24T02:39:42.112Z,87.63
2023-11-24T02:42:11.469Z,87.67
2023-11-24T02:44:40.710Z,87.74
2023-11-24T02:47:10.300Z,87.85
2023-11-24T02:49:40.342Z,87.86
2023-11-24T02:52:10.626Z,87.80
2023-11-24T02:54:39.792Z,87.79
2023-11-24T02:57:10.125Z,87.73
2023-11-24T02:59:39.254Z,87.75
2023-11-24T03:02:09.140Z,87.73
2023-11-24T03:04:38.924Z,87.73
2023-11-24T03:07:09.921Z,87.74
2023-11-24T03:09:38.971Z,87.77
2023-11-24T03:12:09.008Z,87.97
2023-11-24T03:14:42.085Z,88.02
2023-11-24T03:17:11.620Z,88.01
2023-11-24T03:19:40.779Z,88.04
2023-11-24T03:22:10.427Z,87.92
2023-11-24T03:24:39.799Z,88.02
2023-11-24T03:27:09.847Z,88.12
2023-11-24T03:29:39.006Z,88.08
2023-11-24T03:32:08.210Z,87.95
2023-11-24T03:34:37.568Z,87.84
2023-11-24T03:37:06.891Z,87.72
2023-11-24T03:39:36.271Z,87.65
2023-11-24T03:42:05.789Z,87.59
2023-11-24T03:44:35.112Z,87.51
2023-11-24T03:47:04.817Z,87.31
2023-11-24T03:49:34.046Z,87.10
2023-11-24T03:52:03.275Z,87.06
2023-11-24T03:54:32.481Z,87.25
2023-11-24T03:57:01.786Z,87.13
2023-11-24T03:59:30.770Z,87.05
2023-11-24T04:01:59.801Z,87.04
2023-11-24T04:04:28.929Z,86.94
2023-11-24T04:06:58.937Z,86.83
2023-11-24T04:09:28.388Z,86.84
2023-11-24T04:12:00.235Z,86.06
2023-11-24T04:14:30.035Z,86.06
2023-11-24T04:17:01.316Z,86.49
2023-11-24T04:19:30.638Z,86.45
2023-11-24T04:22:02.044Z,86.39
2023-11-24T04:24:31.270Z,86.13
2023-11-24T04:27:00.380Z,85.90
2023-11-24T04:29:29.490Z,85.92
2023-11-24T04:31:58.476Z,86.09
2023-11-24T04:34:27.793Z,85.85
2023-11-24T04:36:57.585Z,85.70
2023-11-24T04:39:26.803Z,85.69
2023-11-24T04:41:55.907Z,85.65
2023-11-24T04:44:25.023Z,85.85
2023-11-24T04:46:54.038Z,85.83
2023-11-24T04:49:22.971Z,86.07
2023-11-24T04:51:52.142Z,86.08
2023-11-24T04:54:22.112Z,86.16
2023-11-24T04:56:51.150Z,86.16
2023-11-24T04:59:24.442Z,86.05
2023-11-24T05:01:53.938Z,86.20
2023-11-24T05:04:23.226Z,86.23
2023-11-24T05:06:52.452Z,86.29
2023-11-24T05:09:21.726Z,86.35
2023-11-24T05:11:51.293Z,86.39
2023-11-24T05:14:23.753Z,86.56
2023-11-24T05:16:53.304Z,86.60
2023-11-24T05:19:22.325Z,86.58
2023-11-24T05:21:51.400Z,86.65
2023-11-24T05:24:22.722Z,86.72
2023-11-24T05:26:53.017Z,86.79
2023-11-24T05:29:22.881Z,86.82
2023-11-24T05:31:52.179Z,86.94
2023-11-24T05:34:25.758Z,87.03
2023-11-24T05:36:54.793Z,87.06
2023-11-24T05:39:23.947Z,87.12
2023-11-24T05:41:52.880Z,87.26
2023-11-24T05:44:22.647Z,87.36
2023-11-24T05:46:51.854Z,87.31
2023-11-24T05:49:22.651Z,87.45
2023-11-24T05:51:52.724Z,87.40
2023-11-24T05:54:22.774Z,87.37
2023-11-24T05:56:52.087Z,87.22
2023-11-24T05:59:22.901Z,87.17
2023-11-24T06:01:52.324Z,87.01
2023-11-24T06:04:23.456Z,87.02
2023-11-24T06:06:53.537Z,87.07
2023-11-24T06:09:24.408Z,86.84
2023-11-24T06:11:54.407Z,86.81
2023-11-24T06:14:23.471Z,86.67
2023-11-24T06:16:53.003Z,86.81
2023-11-24T06:19:23.413Z,86.82
2023-11-24T06:21:52.389Z,86.76
2023-11-24T06:24:22.164Z,86.72
2023-11-24T06:26:51.189Z,86.62
2023-11-24T06:29:23.269Z,86.65
2023-11-24T06:31:52.425Z,86.66
2023-11-24T06:34:23.568Z,86.57
2023-11-24T06:36:53.738Z,86.56
2023-11-24T06:39:22.833Z,86.82
2023-11-24T06:41:55.039Z,86.78
2023-11-24T06:44:26.711Z,86.87
2023-11-24T06:46:55.930Z,86.84
2023-11-24T06:49:24.739Z,86.68
2023-11-24T06:51:53.870Z,86.61
2023-11-24T06:54:22.741Z,86.55
2023-11-24T06:56:51.716Z,86.53
2023-11-24T06:59:23.035Z,86.49
2023-11-24T07:01:54.121Z,86.26
2023-11-24T07:04:24.253Z,86.30
2023-11-24T07:06:53.524Z,86.21
2023-11-24T07:09:22.780Z,86.16
2023-11-24T07:11:52.319Z,85.55
2023-11-24T07:14:22.048Z,85.57
2023-11-24T07:16:51.869Z,85.46
2023-11-24T07:19:22.707Z,84.74
2023-11-24T07:21:51.823Z,84.58
2023-11-24T07:24:22.045Z,84.29
2023-11-24T07:26:54.330Z,84.54
2023-11-24T07:29:23.545Z,83.71
2023-11-24T07:31:52.900Z,84.53
2023-11-24T07:34:22.056Z,83.90
2023-11-24T07:36:51.170Z,84.06
2023-11-24T07:39:22.025Z,83.62
2023-11-24T07:41:53.825Z,84.24
2023-11-24T07:44:24.057Z,84.30
2023-11-24T07:46:53.391Z,84.07
2023-11-24T07:49:22.583Z,84.15
2023-11-24T07:51:52.340Z,84.21
2023-11-24T07:54:22.776Z,84.38
2023-11-24T07:56:51.660Z,83.69
2023-11-24T07:59:21.637Z,83.83
2023-11-24T08:01:51.009Z,82.49
2023-11-24T08:04:23.305Z,82.90
2023-11-24T08:06:56.728Z,82.93
2023-11-24T08:09:27.000Z,83.15
2023-11-24T08:11:56.098Z,83.58
2023-11-24T08:14:27.049Z,82.78
2023-11-24T08:16:56.417Z,82.40
2023-11-24T08:19:26.932Z,82.65
2023-11-24T08:21:56.223Z,82.54
2023-11-24T08:24:25.496Z,82.49
2023-11-24T08:26:55.703Z,82.41
2023-11-24T08:29:25.044Z,82.35
2023-11-24T08:31:54.513Z,82.39
2023-11-24T08:34:24.141Z,82.32
2023-11-24T08:36:53.889Z,82.90
2023-11-24T08:39:23.425Z,82.49
2023-11-24T08:41:54.234Z,82.04
2023-11-24T08:44:25.248Z,82.42
2023-11-24T08:46:54.597Z,82.29
2023-11-24T08:49:24.658Z,81.92
2023-11-24T08:51:54.575Z,81.39
2023-11-24T08:54:24.248Z,81.48
2023-11-24T08:56:54.442Z,81.12
2023-11-24T08:59:23.720Z,81.54
2023-11-24T09:01:52.944Z,81.46
2023-11-24T09:04:23.007Z,81.49
2023-11-24T09:06:51.971Z,81.08
2023-11-24T09:09:22.003Z,81.93
2023-11-24T09:11:51.864Z,81.78
2023-11-24T09:14:22.091Z,81.18
2023-11-24T09:16:51.293Z,80.31
2023-11-24T09:19:21.440Z,80.88
2023-11-24T09:21:51.148Z,80.11
2023-11-24T09:24:22.647Z,79.57
2023-11-24T09:26:53.955Z,80.06
2023-11-24T09:29:24.483Z,79.42
2023-11-24T09:32:07.638Z,79.42
2023-11-24T09:35:19.005Z,79.98
2023-11-24T09:38:00.731Z,79.71
2023-11-24T09:41:24.781Z,79.48
2023-11-24T09:44:25.044Z,80.73
2023-11-24T09:50:42.712Z,80.26
2023-11-24T09:53:34.664Z,79.40
2023-11-24T09:56:16.611Z,80.03
2023-11-24T09:58:46.847Z,80.31
2023-11-24T10:01:22.502Z,80.08
2023-11-24T10:03:53.450Z,79.51
2023-11-24T10:06:23.857Z,80.04
2023-11-24T10:08:53.131Z,79.94
2023-11-24T10:11:28.857Z,79.43
2023-11-24T10:14:01.067Z,79.39
2023-11-24T10:16:36.111Z,79.26
2023-11-24T10:19:09.718Z,78.87
2023-11-24T10:21:43.582Z,78.70
2023-11-24T10:24:23.505Z,79.36
2023-11-24T10:26:55.044Z,79.03
2023-11-24T10:29:31.685Z,78.51
2023-11-24T10:32:40.726Z,79.05
2023-11-24T10:35:49.194Z,78.62
2023-11-24T10:38:36.317Z,79.03
2023-11-24T10:41:38.382Z,78.57
2023-11-24T10:44:24.536Z,76.41
2023-11-24T10:47:05.595Z,75.79
2023-11-24T10:50:21.265Z,75.03
2023-11-24T10:53:16.931Z,72.83
2023-11-24T10:56:07.131Z,71.60
2023-11-24T10:58:39.991Z,72.58
2023-11-24T11:01:32.941Z,73.33
2023-11-24T11:04:10.608Z,73.21
2023-11-24T11:06:57.535Z,73.24
2023-11-24T11:09:53.650Z,74.08
2023-11-24T11:16:01.300Z,75.81
2023-11-24T11:18:34.108Z,75.76
2023-11-24T11:21:14.134Z,74.76
2023-11-24T11:23:44.516Z,75.28
2023-11-24T11:26:51.002Z,75.19
2023-11-24T11:29:31.035Z,74.95
2023-11-24T11:32:08.065Z,74.06
2023-11-24T11:34:46.520Z,74.65
2023-11-24T11:37:37.815Z,74.66
2023-11-24T11:40:45.657Z,74.84
2023-11-24T11:47:25.644Z,74.23
2023-11-24T11:50:08.406Z,74.77
2023-11-24T11:52:52.944Z,75.08
2023-11-24T11:55:29.407Z,74.54
2023-11-24T11:58:05.011Z,73.20
2023-11-24T12:00:35.019Z,74.36
2023-11-24T12:03:06.038Z,74.49
2023-11-24T12:05:43.577Z,73.30
2023-11-24T12:08:34.703Z,73.85
2023-11-24T12:11:11.350Z,74.10
2023-11-24T12:13:44.209Z,72.97
2023-11-24T12:16:36.151Z,73.58
2023-11-24T12:19:14.221Z,73.97
2023-11-24T12:21:47.294Z,73.76
2023-11-24T12:24:24.707Z,73.67
2023-11-24T12:26:55.706Z,74.09
2023-11-24T12:29:27.497Z,74.19
2023-11-24T12:32:04.513Z,74.71
2023-11-24T12:34:37.200Z,74.14
2023-11-24T12:37:08.968Z,74.43
2023-11-24T12:39:41.361Z,74.89
2023-11-24T12:42:11.623Z,75.20
2023-11-24T12:44:42.337Z,75.78
2023-11-24T12:47:16.826Z,75.75
2023-11-24T12:50:02.857Z,75.96
2023-11-24T12:52:33.338Z,76.03
2023-11-24T12:55:12.350Z,76.44
2023-11-24T12:57:48.495Z,76.73
2023-11-24T13:00:27.119Z,76.88
2023-11-24T13:02:56.897Z,76.93
2023-11-24T13:05:30.201Z,77.00
2023-11-24T13:08:10.476Z,77.29
2023-11-24T13:10:41.651Z,77.40
2023-11-24T13:13:15.050Z,77.58
2023-11-24T13:15:44.387Z,77.65
2023-11-24T13:18:28.683Z,77.86
2023-11-24T13:20:58.216Z,78.03
2023-11-24T13:23:27.743Z,78.16
2023-11-24T13:25:57.329Z,78.37
2023-11-24T13:28:35.671Z,79.07
2023-11-24T13:31:09.447Z,79.13
2023-11-24T13:33:39.156Z,79.86
2023-11-24T13:36:11.640Z,80.44
2023-11-24T13:38:41.422Z,80.00
2023-11-24T13:41:12.977Z,80.19
2023-11-24T13:43:42.369Z,80.00
2023-11-24T13:46:12.913Z,79.52
2023-11-24T13:48:44.639Z,79.02
2023-11-24T13:51:13.662Z,78.14
2023-11-24T13:53:42.549Z,78.49
2023-11-24T13:56:12.102Z,78.61
2023-11-24T13:58:41.101Z,78.43
2023-11-24T14:01:10.582Z,78.61
2023-11-24T14:03:40.991Z,78.63
2023-11-24T14:06:10.523Z,78.87
2023-11-24T14:08:39.568Z,78.84
2023-11-24T14:11:08.891Z,78.52
2023-11-24T14:13:40.344Z,77.83
2023-11-24T14:16:10.016Z,77.88
2023-11-24T14:18:39.249Z,77.79
2023-11-24T14:21:08.483Z,77.82
2023-11-24T14:23:37.595Z,78.20
2023-11-24T14:26:06.912Z,78.12
2023-11-24T14:28:36.198Z,78.40
2023-11-24T14:31:06.025Z,78.56
2023-11-24T14:33:36.235Z,78.86
2023-11-24T14:36:11.018Z,79.27
2023-11-24T14:38:42.517Z,79.60
2023-11-24T14:41:16.181Z,79.98
2023-11-24T14:43:45.334Z,80.69
2023-11-24T14:46:15.890Z,80.78
2023-11-24T14:48:50.182Z,80.98
2023-11-24T14:51:21.729Z,81.90
2023-11-24T14:53:52.017Z,82.08
2023-11-24T14:56:21.086Z,82.58
2023-11-24T14:58:51.929Z,83.11
2023-11-24T15:01:24.818Z,83.15
2023-11-24T15:03:54.287Z,83.57
2023-11-24T15:06:26.487Z,83.46
2023-11-24T15:09:00.685Z,83.45
2023-11-24T15:11:38.228Z,83.37
2023-11-24T15:14:14.017Z,83.00
2023-11-24T15:16:53.836Z,83.22
2023-11-24T15:19:26.868Z,83.18
2023-11-24T15:21:57.106Z,83.34
2023-11-24T15:24:33.790Z,83.33
2023-11-24T15:27:06.972Z,83.49
2023-11-24T15:29:37.779Z,83.58
2023-11-24T15:32:10.197Z,84.39
2023-11-24T15:34:39.360Z,83.93
2023-11-24T15:37:09.501Z,84.04
2023-11-24T15:39:41.406Z,84.17
2023-11-24T15:42:15.076Z,84.17
2023-11-24T15:44:46.688Z,83.89
2023-11-24T15:47:17.005Z,84.07
2023-11-24T15:49:46.189Z,84.93
2023-11-24T15:52:15.953Z,84.36
2023-11-24T15:54:53.616Z,84.01
2023-11-24T15:57:27.045Z,84.61
2023-11-24T16:00:02.210Z,85.44
2023-11-24T16:02:40.796Z,85.44
2023-11-24T16:05:33.353Z,85.28
2023-11-24T16:08:08.252Z,85.71
2023-11-24T16:10:46.635Z,85.73
2023-11-24T16:13:19.954Z,85.28
2023-11-24T16:15:49.378Z,85.65
2023-11-24T16:18:26.512Z,85.64
2023-11-24T16:21:01.551Z,85.77
2023-11-24T16:23:30.620Z,86.00
2023-11-24T16:25:59.664Z,86.34
2023-11-24T16:28:28.753Z,86.37
2023-11-24T16:30:58.017Z,86.39
2023-11-24T16:33:34.068Z,86.76
2023-11-24T16:36:05.826Z,86.82
2023-11-24T16:38:37.681Z,86.82
2023-11-24T16:41:07.531Z,86.91
2023-11-24T16:43:36.628Z,86.90
2023-11-24T16:46:09.792Z,86.95
2023-11-24T16:48:41.453Z,87.17
2023-11-24T16:51:10.889Z,87.32
2023-11-24T16:53:44.155Z,87.27
2023-11-24T16:56:14.077Z,87.32
2023-11-24T16:58:43.170Z,87.54
2023-11-24T17:01:12.954Z,87.47
2023-11-24T17:03:44.057Z,87.57
2023-11-24T17:06:14.451Z,87.59
2023-11-24T17:08:43.410Z,87.62
2023-11-24T17:11:12.653Z,87.72
2023-11-24T17:13:44.576Z,87.76
2023-11-24T17:16:15.244Z,87.91
2023-11-24T17:18:44.266Z,87.96
2023-11-24T17:21:13.578Z,88.02
2023-11-24T17:23:43.551Z,88.18
2023-11-24T17:26:13.283Z,88.29
2023-11-24T17:28:46.602Z,88.37
2023-11-24T17:31:16.308Z,88.52
2023-11-24T17:33:45.266Z,88.76
2023-11-24T17:36:14.887Z,88.85
2023-11-24T17:38:45.041Z,88.90
2023-11-24T17:41:15.211Z,88.99
2023-11-24T17:43:44.571Z,89.07
2023-11-24T17:46:14.047Z,89.27
2023-11-24T17:48:45.332Z,89.31
2023-11-24T17:51:17.529Z,89.41
2023-11-24T17:53:46.559Z,89.55
2023-11-24T17:56:15.612Z,89.62
2023-11-24T17:58:44.957Z,89.72
2023-11-24T18:01:15.119Z,89.97
2023-11-24T18:03:44.532Z,89.93
2023-11-24T18:06:13.805Z,90.00
2023-11-24T18:08:43.219Z,89.97
2023-11-24T18:11:12.613Z,89.96
2023-11-24T18:13:41.566Z,90.14
2023-11-24T18:16:11.541Z,90.02
2023-11-24T18:18:40.629Z,90.02
2023-11-24T18:21:09.873Z,90.09
2023-11-24T18:23:39.387Z,90.02
2023-11-24T18:26:08.602Z,90.15
2023-11-24T18:28:37.797Z,89.86
2023-11-24T18:31:08.954Z,89.87
2023-11-24T18:33:39.508Z,89.88
2023-11-24T18:36:11.032Z,89.80
2023-11-24T18:38:40.129Z,89.50
2023-11-24T18:41:14.612Z,89.59
2023-11-24T18:43:47.232Z,89.33
2023-11-24T18:46:17.114Z,89.20
2023-11-24T18:48:46.397Z,89.18
2023-11-24T18:51:15.800Z,88.98
2023-11-24T18:53:46.723Z,88.84
2023-11-24T18:56:21.357Z,88.66
2023-11-24T18:58:50.576Z,88.60
2023-11-24T19:01:19.839Z,88.44
2023-11-24T19:03:48.842Z,88.37
2023-11-24T19:06:18.869Z,88.24
2023-11-24T19:08:51.614Z,88.12
2023-11-24T19:11:23.847Z,87.92
2023-11-24T19:13:56.762Z,87.90
2023-11-24T19:16:27.700Z,87.60
2023-11-24T19:18:58.167Z,87.63
2023-11-24T19:21:28.841Z,87.57
2023-11-24T19:23:59.097Z,87.55
2023-11-24T19:26:30.408Z,87.44
2023-11-24T19:29:05.840Z,87.37
2023-11-24T19:31:40.311Z,87.31
2023-11-24T19:34:09.749Z,87.31
2023-11-24T19:36:38.909Z,87.24
2023-11-24T19:39:10.881Z,87.18
2023-11-24T19:41:41.210Z,87.09
2023-11-24T19:44:10.585Z,87.07
2023-11-24T19:46:39.798Z,87.05
2023-11-24T19:49:10.728Z,87.05
2023-11-24T19:51:40.509Z,86.95
2023-11-24T19:54:09.779Z,86.85
2023-11-24T19:56:40.359Z,86.83
2023-11-24T19:59:09.834Z,86.77
2023-11-24T20:01:39.566Z,86.79
2023-11-24T20:04:08.843Z,86.72
2023-11-24T20:06:38.308Z,86.69
2023-11-24T20:09:12.016Z,86.75
2023-11-24T20:11:41.158Z,86.75
2023-11-24T20:14:10.640Z,86.68
2023-11-24T20:16:39.887Z,86.66
2023-11-24T20:19:12.010Z,86.72
2023-11-24T20:21:41.376Z,86.65
2023-11-24T20:24:12.406Z,86.61
2023-11-24T20:26:42.281Z,86.49
2023-11-24T20:29:11.468Z,86.36
2023-11-24T20:31:41.357Z,86.37
2023-11-24T20:34:10.625Z,86.32
2023-11-24T20:36:39.552Z,86.17
2023-11-24T20:39:09.108Z,85.90
2023-11-24T20:41:44.029Z,85.92
2023-11-24T20:44:17.214Z,85.81
2023-11-24T20:46:50.748Z,85.74
2023-11-24T20:49:20.839Z,85.64
2023-11-24T20:51:52.535Z,85.63
2023-11-24T20:54:22.115Z,85.64
2023-11-24T20:56:59.428Z,85.65
2023-11-24T20:59:30.868Z,85.54
2023-11-24T21:02:00.466Z,85.43
2023-11-24T21:04:30.185Z,85.48
2023-11-24T21:07:00.953Z,85.54
2023-11-24T21:09:31.420Z,85.54
2023-11-24T21:12:02.727Z,85.58
2023-11-24T21:14:31.948Z,85.60
2023-11-24T21:17:01.485Z,85.66
2023-11-24T21:19:30.928Z,85.70
2023-11-24T21:22:00.764Z,85.87
2023-11-24T21:24:32.067Z,86.00
2023-11-24T21:27:03.039Z,86.02
2023-11-24T21:29:35.305Z,86.10
2023-11-24T21:32:04.763Z,86.15
2023-11-24T21:34:36.811Z,86.18
2023-11-24T21:37:06.652Z,86.29
2023-11-24T21:39:37.116Z,86.36
2023-11-24T21:42:07.050Z,86.61
2023-11-24T21:44:38.450Z,86.65
2023-11-24T21:47:07.896Z,86.72
2023-11-24T21:49:38.361Z,86.72
2023-11-24T21:52:08.241Z,86.86
2023-11-24T21:54:37.940Z,86.85
2023-11-24T21:57:07.469Z,86.94
2023-11-24T21:59:36.685Z,87.00
2023-11-24T22:02:06.643Z,87.00
2023-11-24T22:04:36.695Z,87.17
2023-11-24T22:07:06.634Z,87.15
2023-11-24T22:09:35.870Z,87.17
2023-11-24T22:12:09.120Z,87.32
2023-11-24T22:14:39.230Z,87.32
2023-11-24T22:17:08.666Z,87.46
2023-11-24T22:19:39.273Z,87.43
2023-11-24T22:22:08.933Z,87.27
2023-11-24T22:24:38.243Z,87.62
2023-11-24T22:27:07.717Z,87.63
2023-11-24T22:29:37.660Z,87.79
2023-11-24T22:32:09.477Z,87.91
2023-11-24T22:34:38.715Z,87.56
2023-11-24T22:37:08.420Z,87.69
2023-11-24T22:39:39.858Z,87.89
2023-11-24T22:42:10.005Z,87.97
2023-11-24T22:44:39.932Z,87.74
2023-11-24T22:47:10.062Z,87.92
2023-11-24T22:49:39.395Z,88.09
2023-11-24T22:52:11.513Z,87.82
2023-11-24T22:54:41.272Z,87.90
2023-11-24T22:57:10.650Z,88.18
2023-11-24T22:59:40.059Z,88.12
2023-11-24T23:02:09.555Z,88.37
2023-11-24T23:04:40.830Z,88.59
2023-11-24T23:07:10.106Z,88.67
2023-11-24T23:09:39.625Z,88.41
2023-11-24T23:12:10.986Z,88.51
2023-11-24T23:14:40.024Z,88.77
2023-11-24T23:17:09.857Z,88.79
2023-11-24T23:19:41.020Z,88.83
2023-11-24T23:22:13.143Z,88.75
2023-11-24T23:24:47.869Z,88.79
2023-11-24T23:27:18.223Z,88.69
2023-11-24T23:29:47.276Z,89.00
2023-11-24T23:32:16.963Z,88.97
2023-11-24T23:34:48.350Z,88.79
2023-11-24T23:37:17.404Z,88.75
2023-11-24T23:39:47.240Z,88.73
2023-11-24T23:42:17.739Z,88.70
2023-11-24T23:44:46.656Z,88.64
2023-11-24T23:47:15.848Z,88.56
2023-11-24T23:49:45.023Z,88.38
2023-11-24T23:52:14.395Z,88.48
2023-11-24T23:54:45.937Z,88.35
2023-11-24T23:57:15.287Z,88.41
2023-11-24T23:59:45.059Z,88.34
